16:39
Airports
History
Links
Donate
Help keep this website running!
PayPal
Bitcoin
Information on this page is community maintained and may be outdated or inaccurate and is intended for reference only or PC simulator navigating.
Always use approved charts for navigating.
WN18
Beckers Landing
Beckers Landing (WN18)
Anacortes, Washington, United States (98221)
4
Lat/Lng:48° 27' 24.38" N / 122° 32' 21.6" W
48.456771 / -122.539334
Elevation:155'ft 47mMSL
ID / ICAO:WN18
Runways:1
Longest:(17-35) 515.0m 1,690ft Grass
Distance To
Airport ID:
Nearby VORs <50NM
Nearby NDBs
Nearby WeatherUpdated 07-25-17 15:56 GMT
Nearby weather at KNUW, Whidbey Island Nas /ault Field located 9.0 nautical miles from WN18
Altimeter: 30.08
Visibility: 10.0 statute miles
Wind: 4 knots (280°)
Temp: 16°c 61°f
Humidity: 67.5%

METAR: KNUW 251556Z 28004KT 10SM FEW240 16/10 A3008 RMK AO2 SLP186 T01610100 $

(Powered by phpweather)
Runway 17 / 35
Dimensions:515 x 22.9m 1690' x 75'ft
Surface:Grass
Runway 17 [A]Runway 35 [B]
Heading:190°TH 010°TH
Lat:
Lng:
48° 27' 32.61"N
122° 32' 19.19"W
48° 27' 16.14"N
122° 32' 24.02"W
User Notes and Comments
Google Map
Nearby Airports
(U) Skagit Rgnl 5.5 NM
KBVS E 79°
(R) Bayview Farms 5.6 NM
WN51 NE 37°
(U) Anacortes 6.3 NM
74S WNW 297°
(R) Whidbey Island Nas /ault Field 9.0 NM
KNUW (WX) SW 216°
4 Barker 10.8 NM
0S4 ESE 121°
(R) Decatur /jones/ 12.6 NM
WA18 WNW 286°
(R) Decatur Shores 12.9 NM
WN07 WNW 283°
VFR Chart
Flight Planning at SkyVector.com